sensor_id;sensor_type;location;lat;lon;timestamp;P1;durP1;ratioP1;P2;durP2;ratioP2
65831;SDS011;52593;42.648;23.332;2023-08-17T00:00:01;10.93;;;5.43;;
65831;SDS011;52593;42.648;23.332;2023-08-17T00:02:33;11.13;;;5.47;;
65831;SDS011;52593;42.648;23.332;2023-08-17T00:04:58;11.33;;;4.87;;
65831;SDS011;52593;42.648;23.332;2023-08-17T00:07:24;10.43;;;5.17;;
65831;SDS011;52593;42.648;23.332;2023-08-17T00:09:49;15.10;;;4.75;;
65831;SDS011;52593;42.648;23.332;2023-08-17T00:12:15;10.27;;;5.30;;
65831;SDS011;52593;42.648;23.332;2023-08-17T00:14:40;9.63;;;4.63;;
65831;SDS011;52593;42.648;23.332;2023-08-17T00:17:06;12.02;;;4.78;;
65831;SDS011;52593;42.648;23.332;2023-08-17T00:19:31;10.73;;;4.80;;
65831;SDS011;52593;42.648;23.332;2023-08-17T00:21:56;8.67;;;5.23;;
65831;SDS011;52593;42.648;23.332;2023-08-17T00:24:22;10.90;;;5.70;;
65831;SDS011;52593;42.648;23.332;2023-08-17T00:26:47;9.37;;;4.67;;
65831;SDS011;52593;42.648;23.332;2023-08-17T00:29:13;10.83;;;5.10;;
65831;SDS011;52593;42.648;23.332;2023-08-17T00:31:40;9.25;;;4.82;;
65831;SDS011;52593;42.648;23.332;2023-08-17T00:34:05;10.43;;;4.80;;
65831;SDS011;52593;42.648;23.332;2023-08-17T00:36:31;11.93;;;4.67;;
65831;SDS011;52593;42.648;23.332;2023-08-17T00:38:56;8.63;;;4.40;;
65831;SDS011;52593;42.648;23.332;2023-08-17T00:41:22;9.63;;;4.30;;
65831;SDS011;52593;42.648;23.332;2023-08-17T00:43:47;12.23;;;4.70;;
65831;SDS011;52593;42.648;23.332;2023-08-17T00:46:12;9.87;;;4.20;;
65831;SDS011;52593;42.648;23.332;2023-08-17T00:48:39;8.77;;;4.40;;
65831;SDS011;52593;42.648;23.332;2023-08-17T00:51:05;12.07;;;4.30;;
65831;SDS011;52593;42.648;23.332;2023-08-17T00:53:31;10.93;;;4.40;;
65831;SDS011;52593;42.648;23.332;2023-08-17T00:55:57;11.25;;;4.38;;
65831;SDS011;52593;42.648;23.332;2023-08-17T00:58:23;9.35;;;3.85;;
65831;SDS011;52593;42.648;23.332;2023-08-17T01:00:49;11.33;;;3.80;;
65831;SDS011;52593;42.648;23.332;2023-08-17T01:03:15;7.10;;;3.60;;
65831;SDS011;52593;42.648;23.332;2023-08-17T01:05:41;6.90;;;3.90;;
65831;SDS011;52593;42.648;23.332;2023-08-17T01:08:07;7.13;;;3.73;;
65831;SDS011;52593;42.648;23.332;2023-08-17T01:10:51;7.63;;;3.70;;
65831;SDS011;52593;42.648;23.332;2023-08-17T01:13:25;7.30;;;3.53;;
65831;SDS011;52593;42.648;23.332;2023-08-17T01:16:02;7.93;;;3.30;;
65831;SDS011;52593;42.648;23.332;2023-08-17T01:18:33;7.68;;;3.40;;
65831;SDS011;52593;42.648;23.332;2023-08-17T01:21:01;9.32;;;3.70;;
65831;SDS011;52593;42.648;23.332;2023-08-17T01:23:30;6.63;;;3.43;;
65831;SDS011;52593;42.648;23.332;2023-08-17T01:25:55;7.60;;;3.38;;
65831;SDS011;52593;42.648;23.332;2023-08-17T01:28:22;7.90;;;3.42;;
65831;SDS011;52593;42.648;23.332;2023-08-17T01:33:56;8.82;;;3.25;;
65831;SDS011;52593;42.648;23.332;2023-08-17T01:36:37;6.97;;;3.05;;
65831;SDS011;52593;42.648;23.332;2023-08-17T01:39:07;7.23;;;3.13;;
65831;SDS011;52593;42.648;23.332;2023-08-17T01:41:34;5.97;;;2.63;;
65831;SDS011;52593;42.648;23.332;2023-08-17T01:44:01;7.38;;;3.00;;
65831;SDS011;52593;42.648;23.332;2023-08-17T01:46:30;7.95;;;3.10;;
65831;SDS011;52593;42.648;23.332;2023-08-17T01:48:59;5.95;;;2.92;;
65831;SDS011;52593;42.648;23.332;2023-08-17T01:51:25;10.67;;;3.37;;
65831;SDS011;52593;42.648;23.332;2023-08-17T01:53:50;6.93;;;2.93;;
65831;SDS011;52593;42.648;23.332;2023-08-17T01:56:16;8.55;;;2.90;;
65831;SDS011;52593;42.648;23.332;2023-08-17T01:58:42;8.32;;;2.92;;
65831;SDS011;52593;42.648;23.332;2023-08-17T02:01:07;7.60;;;2.87;;
65831;SDS011;52593;42.648;23.332;2023-08-17T02:03:32;7.27;;;2.80;;
65831;SDS011;52593;42.648;23.332;2023-08-17T02:06:01;8.93;;;3.00;;
65831;SDS011;52593;42.648;23.332;2023-08-17T02:08:26;8.48;;;2.90;;
65831;SDS011;52593;42.648;23.332;2023-08-17T02:10:52;6.40;;;2.57;;
65831;SDS011;52593;42.648;23.332;2023-08-17T02:13:17;5.65;;;2.80;;
65831;SDS011;52593;42.648;23.332;2023-08-17T02:15:43;5.60;;;2.57;;
65831;SDS011;52593;42.648;23.332;2023-08-17T02:18:09;7.15;;;2.83;;
65831;SDS011;52593;42.648;23.332;2023-08-17T02:20:34;6.27;;;2.77;;
65831;SDS011;52593;42.648;23.332;2023-08-17T02:23:00;7.53;;;3.00;;
65831;SDS011;52593;42.648;23.332;2023-08-17T02:25:26;6.87;;;2.90;;
65831;SDS011;52593;42.648;23.332;2023-08-17T02:27:52;6.30;;;2.90;;
65831;SDS011;52593;42.648;23.332;2023-08-17T02:30:17;6.70;;;2.72;;
65831;SDS011;52593;42.648;23.332;2023-08-17T02:32:43;6.40;;;2.87;;
65831;SDS011;52593;42.648;23.332;2023-08-17T02:35:08;6.53;;;2.90;;
65831;SDS011;52593;42.648;23.332;2023-08-17T02:37:34;8.70;;;3.10;;
65831;SDS011;52593;42.648;23.332;2023-08-17T02:39:59;5.80;;;2.50;;
65831;SDS011;52593;42.648;23.332;2023-08-17T02:42:24;7.53;;;2.90;;
65831;SDS011;52593;42.648;23.332;2023-08-17T02:44:50;8.47;;;3.30;;
65831;SDS011;52593;42.648;23.332;2023-08-17T02:47:15;7.53;;;2.97;;
65831;SDS011;52593;42.648;23.332;2023-08-17T02:49:40;7.10;;;2.90;;
65831;SDS011;52593;42.648;23.332;2023-08-17T02:52:06;7.20;;;3.25;;
65831;SDS011;52593;42.648;23.332;2023-08-17T02:54:31;8.67;;;3.00;;
65831;SDS011;52593;42.648;23.332;2023-08-17T02:56:57;7.90;;;3.10;;
65831;SDS011;52593;42.648;23.332;2023-08-17T02:59:22;8.98;;;3.40;;
65831;SDS011;52593;42.648;23.332;2023-08-17T03:01:48;7.73;;;2.87;;
65831;SDS011;52593;42.648;23.332;2023-08-17T03:04:13;6.83;;;2.70;;
65831;SDS011;52593;42.648;23.332;2023-08-17T03:06:39;6.73;;;2.50;;
65831;SDS011;52593;42.648;23.332;2023-08-17T03:09:04;7.22;;;3.10;;
65831;SDS011;52593;42.648;23.332;2023-08-17T03:11:29;6.07;;;2.90;;
65831;SDS011;52593;42.648;23.332;2023-08-17T03:13:55;8.57;;;2.90;;
65831;SDS011;52593;42.648;23.332;2023-08-17T03:16:25;10.98;;;2.90;;
65831;SDS011;52593;42.648;23.332;2023-08-17T03:18:55;7.80;;;3.03;;
65831;SDS011;52593;42.648;23.332;2023-08-17T03:21:20;10.47;;;2.83;;
65831;SDS011;52593;42.648;23.332;2023-08-17T03:23:46;5.82;;;2.92;;
65831;SDS011;52593;42.648;23.332;2023-08-17T03:26:11;7.23;;;2.90;;
65831;SDS011;52593;42.648;23.332;2023-08-17T03:28:37;6.63;;;2.60;;
65831;SDS011;52593;42.648;23.332;2023-08-17T03:31:02;7.22;;;2.58;;
65831;SDS011;52593;42.648;23.332;2023-08-17T03:33:28;7.57;;;2.50;;
65831;SDS011;52593;42.648;23.332;2023-08-17T03:35:54;9.15;;;3.05;;
65831;SDS011;52593;42.648;23.332;2023-08-17T03:38:19;6.70;;;2.80;;
65831;SDS011;52593;42.648;23.332;2023-08-17T03:40:45;7.07;;;2.90;;
65831;SDS011;52593;42.648;23.332;2023-08-17T03:43:11;6.05;;;2.78;;
65831;SDS011;52593;42.648;23.332;2023-08-17T03:45:36;5.90;;;2.50;;
65831;SDS011;52593;42.648;23.332;2023-08-17T03:48:02;7.18;;;2.60;;
65831;SDS011;52593;42.648;23.332;2023-08-17T03:50:27;5.93;;;2.90;;
65831;SDS011;52593;42.648;23.332;2023-08-17T03:52:53;6.53;;;2.40;;
65831;SDS011;52593;42.648;23.332;2023-08-17T03:55:18;7.53;;;2.33;;
65831;SDS011;52593;42.648;23.332;2023-08-17T03:57:44;9.03;;;2.37;;
65831;SDS011;52593;42.648;23.332;2023-08-17T04:00:09;6.37;;;2.77;;
65831;SDS011;52593;42.648;23.332;2023-08-17T04:02:35;5.43;;;2.63;;
65831;SDS011;52593;42.648;23.332;2023-08-17T04:05:01;8.18;;;2.50;;
65831;SDS011;52593;42.648;23.332;2023-08-17T04:07:27;8.03;;;2.47;;
65831;SDS011;52593;42.648;23.332;2023-08-17T04:09:52;7.32;;;2.67;;
65831;SDS011;52593;42.648;23.332;2023-08-17T04:12:18;7.03;;;2.43;;
65831;SDS011;52593;42.648;23.332;2023-08-17T04:14:43;8.30;;;2.50;;
65831;SDS011;52593;42.648;23.332;2023-08-17T04:17:09;6.68;;;2.60;;
65831;SDS011;52593;42.648;23.332;2023-08-17T04:19:34;5.40;;;2.30;;
65831;SDS011;52593;42.648;23.332;2023-08-17T04:22:00;5.77;;;2.63;;
65831;SDS011;52593;42.648;23.332;2023-08-17T04:24:25;5.88;;;2.50;;
65831;SDS011;52593;42.648;23.332;2023-08-17T04:26:51;8.20;;;2.40;;
65831;SDS011;52593;42.648;23.332;2023-08-17T04:29:16;6.60;;;2.60;;
65831;SDS011;52593;42.648;23.332;2023-08-17T04:31:41;6.43;;;2.40;;
65831;SDS011;52593;42.648;23.332;2023-08-17T04:34:07;5.70;;;2.22;;
65831;SDS011;52593;42.648;23.332;2023-08-17T04:36:32;7.50;;;2.50;;
65831;SDS011;52593;42.648;23.332;2023-08-17T04:38:58;6.43;;;2.47;;
65831;SDS011;52593;42.648;23.332;2023-08-17T04:41:23;8.80;;;2.20;;
65831;SDS011;52593;42.648;23.332;2023-08-17T04:43:49;5.05;;;2.17;;
65831;SDS011;52593;42.648;23.332;2023-08-17T04:46:14;13.70;;;2.30;;
65831;SDS011;52593;42.648;23.332;2023-08-17T04:48:39;6.57;;;2.30;;
65831;SDS011;52593;42.648;23.332;2023-08-17T04:51:05;5.77;;;2.27;;
65831;SDS011;52593;42.648;23.332;2023-08-17T04:53:30;7.18;;;2.60;;
65831;SDS011;52593;42.648;23.332;2023-08-17T04:55:56;6.57;;;2.40;;
65831;SDS011;52593;42.648;23.332;2023-08-17T04:58:21;5.60;;;2.60;;
65831;SDS011;52593;42.648;23.332;2023-08-17T05:00:47;7.03;;;2.30;;
65831;SDS011;52593;42.648;23.332;2023-08-17T05:03:13;7.47;;;2.57;;
65831;SDS011;52593;42.648;23.332;2023-08-17T05:05:38;5.20;;;2.30;;
65831;SDS011;52593;42.648;23.332;2023-08-17T05:08:04;5.78;;;2.20;;
65831;SDS011;52593;42.648;23.332;2023-08-17T05:10:30;6.63;;;2.80;;
65831;SDS011;52593;42.648;23.332;2023-08-17T05:12:55;8.87;;;2.50;;
65831;SDS011;52593;42.648;23.332;2023-08-17T05:15:20;8.00;;;2.90;;
65831;SDS011;52593;42.648;23.332;2023-08-17T05:17:46;7.53;;;2.30;;
65831;SDS011;52593;42.648;23.332;2023-08-17T05:20:11;9.63;;;2.78;;
65831;SDS011;52593;42.648;23.332;2023-08-17T05:22:38;6.03;;;2.77;;
65831;SDS011;52593;42.648;23.332;2023-08-17T05:25:03;5.37;;;2.50;;
65831;SDS011;52593;42.648;23.332;2023-08-17T05:27:29;7.03;;;2.57;;
65831;SDS011;52593;42.648;23.332;2023-08-17T05:29:54;13.27;;;2.80;;
65831;SDS011;52593;42.648;23.332;2023-08-17T05:32:20;6.23;;;2.83;;
65831;SDS011;52593;42.648;23.332;2023-08-17T05:34:46;8.47;;;2.80;;
65831;SDS011;52593;42.648;23.332;2023-08-17T05:37:12;8.45;;;3.05;;
65831;SDS011;52593;42.648;23.332;2023-08-17T05:39:37;9.17;;;3.20;;
65831;SDS011;52593;42.648;23.332;2023-08-17T05:42:04;6.40;;;3.10;;
65831;SDS011;52593;42.648;23.332;2023-08-17T05:44:29;10.60;;;3.40;;
65831;SDS011;52593;42.648;23.332;2023-08-17T05:46:55;10.00;;;3.35;;
65831;SDS011;52593;42.648;23.332;2023-08-17T05:49:20;8.53;;;3.30;;
65831;SDS011;52593;42.648;23.332;2023-08-17T05:51:46;9.30;;;3.00;;
65831;SDS011;52593;42.648;23.332;2023-08-17T05:54:11;7.27;;;3.10;;
65831;SDS011;52593;42.648;23.332;2023-08-17T05:56:37;8.45;;;3.30;;
65831;SDS011;52593;42.648;23.332;2023-08-17T05:59:02;7.43;;;3.20;;
65831;SDS011;52593;42.648;23.332;2023-08-17T06:01:28;13.75;;;3.40;;
65831;SDS011;52593;42.648;23.332;2023-08-17T06:03:53;8.07;;;3.03;;
65831;SDS011;52593;42.648;23.332;2023-08-17T06:06:19;11.43;;;3.63;;
65831;SDS011;52593;42.648;23.332;2023-08-17T06:08:44;7.13;;;3.17;;
65831;SDS011;52593;42.648;23.332;2023-08-17T06:11:10;12.80;;;3.90;;
65831;SDS011;52593;42.648;23.332;2023-08-17T06:13:35;11.00;;;3.73;;
65831;SDS011;52593;42.648;23.332;2023-08-17T06:16:01;9.93;;;3.53;;
65831;SDS011;52593;42.648;23.332;2023-08-17T06:18:27;10.95;;;3.60;;
65831;SDS011;52593;42.648;23.332;2023-08-17T06:20:52;9.33;;;3.37;;
65831;SDS011;52593;42.648;23.332;2023-08-17T06:23:19;8.68;;;3.50;;
65831;SDS011;52593;42.648;23.332;2023-08-17T06:25:44;10.23;;;3.67;;
65831;SDS011;52593;42.648;23.332;2023-08-17T06:28:10;10.60;;;3.57;;
65831;SDS011;52593;42.648;23.332;2023-08-17T06:30:35;9.10;;;3.13;;
65831;SDS011;52593;42.648;23.332;2023-08-17T06:33:01;9.00;;;3.78;;
65831;SDS011;52593;42.648;23.332;2023-08-17T06:35:26;10.37;;;3.43;;
65831;SDS011;52593;42.648;23.332;2023-08-17T06:37:51;8.23;;;3.60;;
65831;SDS011;52593;42.648;23.332;2023-08-17T06:40:20;8.63;;;3.75;;
65831;SDS011;52593;42.648;23.332;2023-08-17T06:42:46;9.23;;;3.97;;
65831;SDS011;52593;42.648;23.332;2023-08-17T06:45:11;9.37;;;3.60;;
65831;SDS011;52593;42.648;23.332;2023-08-17T06:47:36;9.03;;;3.97;;
65831;SDS011;52593;42.648;23.332;2023-08-17T06:50:02;8.33;;;4.30;;
65831;SDS011;52593;42.648;23.332;2023-08-17T06:52:28;7.97;;;4.05;;
65831;SDS011;52593;42.648;23.332;2023-08-17T06:54:53;7.00;;;3.63;;
65831;SDS011;52593;42.648;23.332;2023-08-17T06:57:19;9.00;;;4.10;;
65831;SDS011;52593;42.648;23.332;2023-08-17T06:59:46;7.90;;;3.55;;
65831;SDS011;52593;42.648;23.332;2023-08-17T07:02:12;7.50;;;3.27;;
65831;SDS011;52593;42.648;23.332;2023-08-17T07:04:37;9.37;;;4.83;;
65831;SDS011;52593;42.648;23.332;2023-08-17T07:07:02;8.90;;;4.53;;
65831;SDS011;52593;42.648;23.332;2023-08-17T07:09:28;11.13;;;5.00;;
65831;SDS011;52593;42.648;23.332;2023-08-17T07:11:54;9.23;;;4.10;;
65831;SDS011;52593;42.648;23.332;2023-08-17T07:14:19;8.25;;;4.65;;
65831;SDS011;52593;42.648;23.332;2023-08-17T07:16:44;12.10;;;4.20;;
65831;SDS011;52593;42.648;23.332;2023-08-17T07:19:10;8.23;;;3.87;;
65831;SDS011;52593;42.648;23.332;2023-08-17T07:21:36;8.25;;;3.63;;
65831;SDS011;52593;42.648;23.332;2023-08-17T07:24:11;8.00;;;3.70;;
65831;SDS011;52593;42.648;23.332;2023-08-17T07:26:37;8.23;;;3.80;;
65831;SDS011;52593;42.648;23.332;2023-08-17T07:29:03;7.07;;;3.70;;
65831;SDS011;52593;42.648;23.332;2023-08-17T07:31:28;7.18;;;3.28;;
65831;SDS011;52593;42.648;23.332;2023-08-17T07:33:54;9.17;;;3.77;;
65831;SDS011;52593;42.648;23.332;2023-08-17T07:36:19;7.87;;;3.40;;
65831;SDS011;52593;42.648;23.332;2023-08-17T07:38:44;7.30;;;3.27;;
65831;SDS011;52593;42.648;23.332;2023-08-17T07:41:10;7.07;;;2.67;;
65831;SDS011;52593;42.648;23.332;2023-08-17T07:43:35;7.07;;;3.00;;
65831;SDS011;52593;42.648;23.332;2023-08-17T07:46:00;6.23;;;2.80;;
65831;SDS011;52593;42.648;23.332;2023-08-17T07:48:26;9.23;;;3.43;;
65831;SDS011;52593;42.648;23.332;2023-08-17T07:50:51;7.47;;;3.60;;
65831;SDS011;52593;42.648;23.332;2023-08-17T07:53:18;8.25;;;4.10;;
65831;SDS011;52593;42.648;23.332;2023-08-17T07:55:43;9.32;;;3.65;;
65831;SDS011;52593;42.648;23.332;2023-08-17T07:58:09;9.07;;;3.15;;
65831;SDS011;52593;42.648;23.332;2023-08-17T08:00:34;7.17;;;4.00;;
65831;SDS011;52593;42.648;23.332;2023-08-17T08:03:00;8.23;;;3.23;;
65831;SDS011;52593;42.648;23.332;2023-08-17T08:05:25;9.03;;;3.60;;
65831;SDS011;52593;42.648;23.332;2023-08-17T08:07:51;9.23;;;3.53;;
65831;SDS011;52593;42.648;23.332;2023-08-17T08:10:16;9.73;;;3.60;;
65831;SDS011;52593;42.648;23.332;2023-08-17T08:12:42;8.70;;;3.63;;
65831;SDS011;52593;42.648;23.332;2023-08-17T08:15:07;9.83;;;4.40;;
65831;SDS011;52593;42.648;23.332;2023-08-17T08:17:33;8.82;;;4.13;;
65831;SDS011;52593;42.648;23.332;2023-08-17T08:19:58;11.67;;;4.90;;
65831;SDS011;52593;42.648;23.332;2023-08-17T08:22:24;10.30;;;4.50;;
65831;SDS011;52593;42.648;23.332;2023-08-17T08:24:50;7.73;;;3.93;;
65831;SDS011;52593;42.648;23.332;2023-08-17T08:27:16;10.02;;;4.55;;
65831;SDS011;52593;42.648;23.332;2023-08-17T08:29:41;10.27;;;4.70;;
65831;SDS011;52593;42.648;23.332;2023-08-17T08:32:06;8.47;;;3.77;;
65831;SDS011;52593;42.648;23.332;2023-08-17T08:34:32;9.07;;;4.27;;
65831;SDS011;52593;42.648;23.332;2023-08-17T08:36:57;9.95;;;5.68;;
65831;SDS011;52593;42.648;23.332;2023-08-17T08:39:24;7.47;;;3.60;;
65831;SDS011;52593;42.648;23.332;2023-08-17T08:41:50;7.30;;;3.90;;
65831;SDS011;52593;42.648;23.332;2023-08-17T08:44:16;8.40;;;3.97;;
65831;SDS011;52593;42.648;23.332;2023-08-17T08:46:41;7.83;;;3.77;;
65831;SDS011;52593;42.648;23.332;2023-08-17T08:49:10;9.40;;;4.40;;
65831;SDS011;52593;42.648;23.332;2023-08-17T08:51:37;8.35;;;4.13;;
65831;SDS011;52593;42.648;23.332;2023-08-17T08:54:07;9.93;;;5.00;;
65831;SDS011;52593;42.648;23.332;2023-08-17T08:56:35;8.23;;;4.00;;
65831;SDS011;52593;42.648;23.332;2023-08-17T08:59:04;7.72;;;4.10;;
65831;SDS011;52593;42.648;23.332;2023-08-17T09:01:32;8.32;;;4.28;;
65831;SDS011;52593;42.648;23.332;2023-08-17T09:03:59;8.00;;;4.00;;
65831;SDS011;52593;42.648;23.332;2023-08-17T09:06:26;11.93;;;4.30;;
65831;SDS011;52593;42.648;23.332;2023-08-17T09:08:52;9.38;;;4.85;;
65831;SDS011;52593;42.648;23.332;2023-08-17T09:11:18;7.90;;;3.90;;
65831;SDS011;52593;42.648;23.332;2023-08-17T09:13:44;6.70;;;3.90;;
65831;SDS011;52593;42.648;23.332;2023-08-17T09:16:09;9.43;;;5.33;;
65831;SDS011;52593;42.648;23.332;2023-08-17T09:18:35;9.13;;;4.90;;
65831;SDS011;52593;42.648;23.332;2023-08-17T09:21:00;9.97;;;4.57;;
65831;SDS011;52593;42.648;23.332;2023-08-17T09:23:26;9.23;;;3.50;;
65831;SDS011;52593;42.648;23.332;2023-08-17T09:25:51;7.77;;;3.57;;
65831;SDS011;52593;42.648;23.332;2023-08-17T09:28:18;7.65;;;3.47;;
65831;SDS011;52593;42.648;23.332;2023-08-17T09:30:55;8.30;;;3.60;;
65831;SDS011;52593;42.648;23.332;2023-08-17T09:33:24;7.97;;;3.17;;
65831;SDS011;52593;42.648;23.332;2023-08-17T09:35:51;5.93;;;3.55;;
65831;SDS011;52593;42.648;23.332;2023-08-17T09:38:18;5.82;;;3.15;;
65831;SDS011;52593;42.648;23.332;2023-08-17T09:40:44;7.65;;;3.17;;
65831;SDS011;52593;42.648;23.332;2023-08-17T09:43:10;7.87;;;2.77;;
65831;SDS011;52593;42.648;23.332;2023-08-17T09:45:36;5.68;;;2.70;;
65831;SDS011;52593;42.648;23.332;2023-08-17T09:48:03;5.30;;;2.70;;
65831;SDS011;52593;42.648;23.332;2023-08-17T09:50:28;5.60;;;2.77;;
65831;SDS011;52593;42.648;23.332;2023-08-17T09:52:54;8.45;;;3.05;;
65831;SDS011;52593;42.648;23.332;2023-08-17T09:55:20;9.10;;;3.67;;
65831;SDS011;52593;42.648;23.332;2023-08-17T09:57:48;7.25;;;2.92;;
65831;SDS011;52593;42.648;23.332;2023-08-17T10:00:15;7.95;;;2.55;;
65831;SDS011;52593;42.648;23.332;2023-08-17T10:02:40;4.60;;;2.50;;
65831;SDS011;52593;42.648;23.332;2023-08-17T10:05:07;8.15;;;3.30;;
65831;SDS011;52593;42.648;23.332;2023-08-17T10:07:36;7.53;;;3.10;;
65831;SDS011;52593;42.648;23.332;2023-08-17T10:10:06;8.40;;;2.90;;
65831;SDS011;52593;42.648;23.332;2023-08-17T10:12:36;8.20;;;3.10;;
65831;SDS011;52593;42.648;23.332;2023-08-17T10:15:03;6.65;;;3.03;;
65831;SDS011;52593;42.648;23.332;2023-08-17T10:17:39;10.18;;;3.90;;
65831;SDS011;52593;42.648;23.332;2023-08-17T10:20:12;5.45;;;2.47;;
65831;SDS011;52593;42.648;23.332;2023-08-17T10:22:40;7.67;;;3.13;;
65831;SDS011;52593;42.648;23.332;2023-08-17T10:25:12;11.27;;;3.35;;
65831;SDS011;52593;42.648;23.332;2023-08-17T10:27:39;7.40;;;2.60;;
65831;SDS011;52593;42.648;23.332;2023-08-17T10:30:06;6.65;;;3.08;;
65831;SDS011;52593;42.648;23.332;2023-08-17T10:32:35;8.40;;;4.78;;
65831;SDS011;52593;42.648;23.332;2023-08-17T10:35:01;6.63;;;2.70;;
65831;SDS011;52593;42.648;23.332;2023-08-17T10:37:28;4.90;;;2.70;;
65831;SDS011;52593;42.648;23.332;2023-08-17T10:39:54;8.25;;;2.95;;
65831;SDS011;52593;42.648;23.332;2023-08-17T10:42:32;5.97;;;2.70;;
65831;SDS011;52593;42.648;23.332;2023-08-17T10:45:00;6.18;;;3.05;;
65831;SDS011;52593;42.648;23.332;2023-08-17T10:47:28;9.18;;;2.67;;
65831;SDS011;52593;42.648;23.332;2023-08-17T10:52:28;5.22;;;2.63;;
65831;SDS011;52593;42.648;23.332;2023-08-17T10:54:56;7.70;;;2.73;;
65831;SDS011;52593;42.648;23.332;2023-08-17T10:57:27;6.78;;;2.67;;
65831;SDS011;52593;42.648;23.332;2023-08-17T11:02:38;7.05;;;2.30;;
65831;SDS011;52593;42.648;23.332;2023-08-17T11:05:04;5.27;;;2.40;;
65831;SDS011;52593;42.648;23.332;2023-08-17T11:07:43;5.75;;;2.20;;
65831;SDS011;52593;42.648;23.332;2023-08-17T11:12:43;5.17;;;2.53;;
65831;SDS011;52593;42.648;23.332;2023-08-17T11:15:09;7.45;;;3.20;;
65831;SDS011;52593;42.648;23.332;2023-08-17T11:17:34;6.13;;;3.43;;
65831;SDS011;52593;42.648;23.332;2023-08-17T11:20:00;7.23;;;3.13;;
65831;SDS011;52593;42.648;23.332;2023-08-17T11:22:25;6.77;;;3.47;;
65831;SDS011;52593;42.648;23.332;2023-08-17T11:24:50;6.93;;;2.60;;
65831;SDS011;52593;42.648;23.332;2023-08-17T11:27:16;6.87;;;2.40;;
65831;SDS011;52593;42.648;23.332;2023-08-17T11:29:41;7.07;;;4.13;;
65831;SDS011;52593;42.648;23.332;2023-08-17T11:32:08;9.57;;;4.65;;
65831;SDS011;52593;42.648;23.332;2023-08-17T11:34:35;6.63;;;3.33;;
65831;SDS011;52593;42.648;23.332;2023-08-17T11:37:01;6.90;;;3.70;;
65831;SDS011;52593;42.648;23.332;2023-08-17T11:39:26;8.13;;;2.97;;
65831;SDS011;52593;42.648;23.332;2023-08-17T11:41:51;7.80;;;3.30;;
65831;SDS011;52593;42.648;23.332;2023-08-17T11:44:18;5.47;;;2.67;;
65831;SDS011;52593;42.648;23.332;2023-08-17T11:46:46;7.43;;;3.88;;
65831;SDS011;52593;42.648;23.332;2023-08-17T11:49:12;6.40;;;3.17;;
65831;SDS011;52593;42.648;23.332;2023-08-17T11:51:38;8.73;;;3.90;;
65831;SDS011;52593;42.648;23.332;2023-08-17T11:54:04;6.43;;;3.70;;
65831;SDS011;52593;42.648;23.332;2023-08-17T11:56:32;8.23;;;4.45;;
65831;SDS011;52593;42.648;23.332;2023-08-17T11:58:58;9.17;;;3.80;;
65831;SDS011;52593;42.648;23.332;2023-08-17T12:01:32;7.82;;;4.20;;
65831;SDS011;52593;42.648;23.332;2023-08-17T12:04:00;8.32;;;3.65;;
65831;SDS011;52593;42.648;23.332;2023-08-17T12:06:25;8.63;;;3.60;;
65831;SDS011;52593;42.648;23.332;2023-08-17T12:08:51;7.07;;;4.03;;
65831;SDS011;52593;42.648;23.332;2023-08-17T12:11:16;6.93;;;3.50;;
65831;SDS011;52593;42.648;23.332;2023-08-17T12:13:42;7.78;;;3.75;;
65831;SDS011;52593;42.648;23.332;2023-08-17T12:16:14;6.88;;;3.50;;
65831;SDS011;52593;42.648;23.332;2023-08-17T12:18:40;9.63;;;3.83;;
65831;SDS011;52593;42.648;23.332;2023-08-17T12:21:09;7.38;;;3.90;;
65831;SDS011;52593;42.648;23.332;2023-08-17T12:23:34;5.70;;;3.27;;
65831;SDS011;52593;42.648;23.332;2023-08-17T12:26:00;6.43;;;4.00;;
65831;SDS011;52593;42.648;23.332;2023-08-17T12:28:26;9.13;;;3.70;;
65831;SDS011;52593;42.648;23.332;2023-08-17T12:31:01;7.50;;;3.85;;
65831;SDS011;52593;42.648;23.332;2023-08-17T12:33:27;7.13;;;3.50;;
65831;SDS011;52593;42.648;23.332;2023-08-17T12:35:53;10.98;;;4.25;;
65831;SDS011;52593;42.648;23.332;2023-08-17T12:38:18;7.23;;;3.90;;
65831;SDS011;52593;42.648;23.332;2023-08-17T12:40:44;12.52;;;5.28;;
65831;SDS011;52593;42.648;23.332;2023-08-17T12:43:09;7.63;;;4.83;;
65831;SDS011;52593;42.648;23.332;2023-08-17T12:45:35;9.90;;;4.53;;
65831;SDS011;52593;42.648;23.332;2023-08-17T12:48:00;7.15;;;4.18;;
65831;SDS011;52593;42.648;23.332;2023-08-17T12:50:26;6.40;;;3.97;;
65831;SDS011;52593;42.648;23.332;2023-08-17T12:52:51;7.70;;;4.30;;
65831;SDS011;52593;42.648;23.332;2023-08-17T12:55:16;6.40;;;4.20;;
65831;SDS011;52593;42.648;23.332;2023-08-17T12:57:42;8.20;;;3.93;;
65831;SDS011;52593;42.648;23.332;2023-08-17T13:00:07;8.70;;;4.72;;
65831;SDS011;52593;42.648;23.332;2023-08-17T13:02:34;11.73;;;4.73;;
65831;SDS011;52593;42.648;23.332;2023-08-17T13:04:59;10.20;;;4.80;;
65831;SDS011;52593;42.648;23.332;2023-08-17T13:07:24;10.00;;;4.90;;
65831;SDS011;52593;42.648;23.332;2023-08-17T13:09:50;7.50;;;4.20;;
65831;SDS011;52593;42.648;23.332;2023-08-17T13:12:15;8.32;;;4.82;;
65831;SDS011;52593;42.648;23.332;2023-08-17T13:14:41;9.10;;;5.20;;
65831;SDS011;52593;42.648;23.332;2023-08-17T13:17:06;7.97;;;4.67;;
65831;SDS011;52593;42.648;23.332;2023-08-17T13:19:32;10.25;;;5.72;;
65831;SDS011;52593;42.648;23.332;2023-08-17T13:21:57;10.57;;;4.63;;
65831;SDS011;52593;42.648;23.332;2023-08-17T13:24:23;11.60;;;7.57;;
65831;SDS011;52593;42.648;23.332;2023-08-17T13:26:48;8.67;;;4.47;;
65831;SDS011;52593;42.648;23.332;2023-08-17T13:29:17;12.65;;;7.43;;
65831;SDS011;52593;42.648;23.332;2023-08-17T13:31:43;9.50;;;6.40;;
65831;SDS011;52593;42.648;23.332;2023-08-17T13:34:08;12.67;;;4.73;;
65831;SDS011;52593;42.648;23.332;2023-08-17T13:36:36;9.93;;;6.20;;
65831;SDS011;52593;42.648;23.332;2023-08-17T13:39:02;14.93;;;9.33;;
65831;SDS011;52593;42.648;23.332;2023-08-17T13:41:27;18.02;;;13.40;;
65831;SDS011;52593;42.648;23.332;2023-08-17T13:43:53;11.43;;;6.87;;
65831;SDS011;52593;42.648;23.332;2023-08-17T13:46:18;10.87;;;6.23;;
65831;SDS011;52593;42.648;23.332;2023-08-17T13:48:44;7.45;;;4.95;;
65831;SDS011;52593;42.648;23.332;2023-08-17T13:51:09;8.13;;;4.10;;
65831;SDS011;52593;42.648;23.332;2023-08-17T13:53:36;7.80;;;4.05;;
65831;SDS011;52593;42.648;23.332;2023-08-17T13:56:01;8.53;;;4.73;;
65831;SDS011;52593;42.648;23.332;2023-08-17T13:58:27;7.83;;;4.53;;
65831;SDS011;52593;42.648;23.332;2023-08-17T14:00:52;10.13;;;4.70;;
65831;SDS011;52593;42.648;23.332;2023-08-17T14:03:18;9.05;;;4.25;;
65831;SDS011;52593;42.648;23.332;2023-08-17T14:05:44;7.50;;;4.50;;
65831;SDS011;52593;42.648;23.332;2023-08-17T14:08:09;8.90;;;4.22;;
65831;SDS011;52593;42.648;23.332;2023-08-17T14:10:35;8.90;;;4.15;;
65831;SDS011;52593;42.648;23.332;2023-08-17T14:13:01;9.37;;;4.50;;
65831;SDS011;52593;42.648;23.332;2023-08-17T14:15:27;9.20;;;4.90;;
65831;SDS011;52593;42.648;23.332;2023-08-17T14:17:52;8.40;;;5.15;;
65831;SDS011;52593;42.648;23.332;2023-08-17T14:20:17;10.60;;;4.30;;
65831;SDS011;52593;42.648;23.332;2023-08-17T14:22:44;8.15;;;4.32;;
65831;SDS011;52593;42.648;23.332;2023-08-17T14:25:10;10.33;;;4.30;;
65831;SDS011;52593;42.648;23.332;2023-08-17T14:27:35;10.17;;;5.17;;
65831;SDS011;52593;42.648;23.332;2023-08-17T14:30:00;10.20;;;4.23;;
65831;SDS011;52593;42.648;23.332;2023-08-17T14:32:27;7.13;;;4.43;;
65831;SDS011;52593;42.648;23.332;2023-08-17T14:34:54;9.77;;;3.90;;
65831;SDS011;52593;42.648;23.332;2023-08-17T14:37:19;11.53;;;5.60;;